Time;durP1;ratioP1;P1;durP2;ratioP2;P2;SDS_P1;SDS_P2;PMS_P1;PMS_P2;Temp;Humidity;BMP_temperature;BMP_pressure;BME280_temperature;BME280_humidity;BME280_pressure;Samples;Min_cycle;Max_cycle;Signal;HPM_P1;HPM_P2
2022/04/01 00:01:40;;;;;;;8.83;5.67;;;4.90;99.90;;;;;;6285940;28;20267;-53
2022/04/01 00:04:43;;;;;;;5.40;5.10;;;4.90;99.90;;;;;;6282649;28;20233;-54
2022/04/01 00:07:45;;;;;;;5.50;5.20;;;4.90;99.90;;;;;;6283645;28;20544;-54
2022/04/01 00:10:50;;;;;;;5.40;5.10;;;4.80;99.90;;;;;;6279686;28;20478;-54
2022/04/01 00:13:52;;;;;;;5.43;5.00;;;4.40;99.90;;;;;;6282481;28;20259;-53
2022/04/01 00:16:55;;;;;;;6.73;5.77;;;5.00;99.90;;;;;;6282304;28;20284;-54
2022/04/01 00:19:58;;;;;;;6.60;6.10;;;4.90;99.90;;;;;;6277506;28;20237;-53
2022/04/01 00:23:00;;;;;;;6.53;6.03;;;4.80;99.90;;;;;;6272941;28;20702;-54
2022/04/01 00:26:05;;;;;;;6.27;5.77;;;4.60;99.90;;;;;;6275506;28;20717;-55
2022/04/01 00:29:15;;;;;;;6.00;5.60;;;4.90;99.90;;;;;;6281850;28;20896;-54
2022/04/01 00:32:17;;;;;;;10.03;6.07;;;4.90;99.90;;;;;;6283012;28;20686;-54
2022/04/01 00:35:20;;;;;;;5.53;5.27;;;4.40;99.90;;;;;;6283792;28;20969;-52
2022/04/01 00:38:23;;;;;;;6.10;5.67;;;4.60;99.90;;;;;;6282803;28;20325;-53
2022/04/01 00:41:27;;;;;;;6.50;5.90;;;4.60;99.90;;;;;;6282771;28;20245;-54
2022/04/01 00:44:32;;;;;;;5.90;5.30;;;4.40;99.90;;;;;;6278343;28;20638;-53
2022/04/01 00:47:34;;;;;;;5.80;5.37;;;4.40;99.90;;;;;;6286834;28;20251;-53
2022/04/01 00:50:37;;;;;;;6.63;6.00;;;4.40;99.90;;;;;;6284811;28;20225;-53
2022/04/01 00:53:40;;;;;;;7.13;5.23;;;4.30;99.90;;;;;;6278082;28;20254;-53
2022/04/01 00:56:45;;;;;;;5.73;5.23;;;4.30;99.90;;;;;;6282622;28;20237;-54
2022/04/01 00:59:50;;;;;;;5.90;5.50;;;4.40;99.90;;;;;;6271282;28;20259;-54
2022/04/01 01:02:54;;;;;;;5.93;5.37;;;4.10;99.90;;;;;;6278520;28;20237;-53
2022/04/01 01:05:57;;;;;;;6.47;5.70;;;4.20;99.90;;;;;;6282348;28;20237;-53
2022/04/01 01:09:00;;;;;;;5.63;5.23;;;4.30;99.90;;;;;;6280011;28;20755;-53
2022/04/01 01:12:06;;;;;;;5.20;4.90;;;4.40;99.90;;;;;;6282325;28;20302;-53
2022/04/01 01:15:13;;;;;;;6.30;5.60;;;3.90;99.90;;;;;;6280217;28;20522;-54
2022/04/01 01:18:16;;;;;;;5.83;5.33;;;4.00;99.90;;;;;;6281787;28;20233;-53
2022/04/01 01:21:19;;;;;;;5.50;5.20;;;3.90;99.90;;;;;;6275389;28;20237;-57
2022/04/01 01:24:28;;;;;;;6.23;5.73;;;4.00;99.90;;;;;;6281527;28;20237;-53
2022/04/01 01:27:31;;;;;;;6.37;5.73;;;4.20;99.90;;;;;;6282573;28;20241;-53
2022/04/01 01:30:34;;;;;;;6.00;5.50;;;3.90;99.90;;;;;;6281531;28;20425;-54
2022/04/01 01:33:39;;;;;;;7.13;5.30;;;4.00;99.90;;;;;;6277564;28;20351;-53
2022/04/01 01:36:42;;;;;;;6.80;5.50;;;3.90;99.90;;;;;;6279545;28;20379;-53
2022/04/01 01:39:46;;;;;;;5.07;4.87;;;3.90;99.90;;;;;;6275232;28;20275;-53
2022/04/01 01:42:48;;;;;;;6.73;5.57;;;4.20;99.90;;;;;;6287176;28;20291;-53
2022/04/01 01:45:51;;;;;;;5.57;5.27;;;3.90;99.90;;;;;;6283973;28;20240;-55
2022/04/01 01:48:54;;;;;;;5.10;4.80;;;3.90;99.90;;;;;;6283864;28;20514;-53
2022/04/01 01:55:18;;;;;;;5.67;5.30;;;3.70;99.90;;;;;;6286625;28;20584;-53
2022/04/01 01:58:21;;;;;;;6.10;5.70;;;4.00;99.90;;;;;;6285724;28;20680;-53
2022/04/01 02:01:24;;;;;;;6.57;6.10;;;3.80;99.90;;;;;;6277894;28;20999;-53
2022/04/01 02:04:27;;;;;;;7.03;5.90;;;3.70;99.90;;;;;;6286839;28;20732;-54
2022/04/01 02:07:30;;;;;;;5.83;5.33;;;3.50;99.90;;;;;;6271594;28;20342;-53
2022/04/01 02:10:35;;;;;;;5.97;5.47;;;3.60;99.90;;;;;;6285822;28;20233;-54
2022/04/01 02:13:38;;;;;;;5.57;5.27;;;3.60;99.90;;;;;;6282866;28;20236;-54
2022/04/01 02:16:43;;;;;;;6.23;5.73;;;3.70;99.90;;;;;;6283671;28;20278;-54
2022/04/01 02:19:46;;;;;;;6.13;5.73;;;3.50;99.90;;;;;;6257368;28;20241;-54
2022/04/01 02:22:48;;;;;;;5.67;5.27;;;3.60;99.90;;;;;;6272846;28;20239;-53
2022/04/01 02:25:52;;;;;;;9.73;5.63;;;3.40;99.90;;;;;;6272643;28;20288;-53
2022/04/01 02:28:59;;;;;;;6.90;6.20;;;3.50;99.90;;;;;;6284953;28;20517;-54
2022/04/01 02:32:01;;;;;;;7.53;6.10;;;3.50;99.90;;;;;;6285773;28;20241;-53
2022/04/01 02:35:05;;;;;;;10.80;6.87;;;3.50;99.90;;;;;;6285408;28;20316;-53
2022/04/01 02:38:07;;;;;;;6.57;6.13;;;3.40;99.90;;;;;;6275199;28;20225;-53
2022/04/01 02:41:12;;;;;;;6.87;6.27;;;3.50;99.90;;;;;;6285462;28;20225;-53
2022/04/01 02:44:15;;;;;;;6.60;6.00;;;3.20;99.90;;;;;;6272801;28;20312;-53
2022/04/01 02:47:18;;;;;;;5.83;5.43;;;3.20;99.90;;;;;;6277348;28;20239;-53
2022/04/01 02:50:21;;;;;;;6.70;6.10;;;3.20;99.90;;;;;;6279871;28;20266;-52
2022/04/01 02:53:23;;;;;;;6.10;5.60;;;3.40;99.90;;;;;;6285508;28;20320;-53
2022/04/01 02:56:27;;;;;;;6.07;5.73;;;3.20;99.90;;;;;;6274675;28;20324;-54
2022/04/01 02:59:30;;;;;;;6.53;6.13;;;3.00;99.90;;;;;;6285318;28;20360;-53
2022/04/01 03:02:33;;;;;;;6.40;6.00;;;3.10;99.90;;;;;;6283559;28;20287;-53
2022/04/01 03:05:37;;;;;;;6.47;6.07;;;3.20;99.90;;;;;;6280253;28;20241;-54
2022/04/01 03:08:40;;;;;;;7.90;6.03;;;3.10;99.90;;;;;;6284764;28;20240;-53
2022/04/01 03:11:44;;;;;;;6.47;6.07;;;2.90;99.90;;;;;;6256013;28;20264;-54
2022/04/01 03:14:48;;;;;;;6.57;6.00;;;3.00;99.90;;;;;;6270337;28;20314;-53
2022/04/01 03:17:51;;;;;;;9.13;6.37;;;3.20;99.90;;;;;;6284795;28;20329;-53
2022/04/01 03:20:53;;;;;;;6.73;6.20;;;3.00;99.90;;;;;;6258322;28;20256;-55
2022/04/01 03:23:57;;;;;;;7.53;6.80;;;3.10;99.90;;;;;;6282213;28;20271;-54
2022/04/01 03:27:01;;;;;;;6.00;5.60;;;2.80;99.90;;;;;;6284782;28;20233;-53
2022/04/01 03:30:09;;;;;;;7.07;6.37;;;2.80;99.90;;;;;;6281240;28;20229;-55
2022/04/01 03:33:12;;;;;;;7.57;6.77;;;2.70;99.90;;;;;;6266020;28;20467;-55
2022/04/01 03:36:14;;;;;;;6.33;5.83;;;2.70;99.90;;;;;;6276502;28;20230;-53
2022/04/01 03:39:18;;;;;;;7.03;6.50;;;2.80;99.90;;;;;;6281840;28;20317;-53
2022/04/01 03:42:22;;;;;;;6.63;6.23;;;2.70;99.90;;;;;;6266502;28;20234;-53
2022/04/01 03:45:25;;;;;;;6.50;6.10;;;2.80;99.90;;;;;;6265258;28;20445;-53
2022/04/01 03:48:31;;;;;;;6.30;5.80;;;2.70;99.90;;;;;;6281596;28;20233;-54
2022/04/01 03:51:35;;;;;;;6.83;6.33;;;2.80;99.90;;;;;;6283183;28;20233;-53
2022/04/01 03:54:41;;;;;;;6.87;6.30;;;2.50;99.90;;;;;;6283463;28;20339;-53
2022/04/01 03:57:52;;;;;;;7.10;6.10;;;2.50;99.90;;;;;;6280364;28;20510;-54
2022/04/01 04:00:56;;;;;;;6.83;6.40;;;2.60;99.90;;;;;;6281453;28;20461;-53
2022/04/01 04:04:03;;;;;;;6.70;6.10;;;2.50;99.90;;;;;;6281577;28;20713;-54
2022/04/01 04:07:07;;;;;;;7.70;6.07;;;2.60;99.90;;;;;;6269724;28;20515;-54
2022/04/01 04:10:10;;;;;;;6.87;6.30;;;2.70;99.90;;;;;;6263083;28;20229;-54
2022/04/01 04:13:15;;;;;;;7.93;6.70;;;2.50;99.90;;;;;;6283701;28;20240;-54
2022/04/01 04:16:20;;;;;;;6.63;6.17;;;2.60;99.90;;;;;;6284005;28;20320;-52
2022/04/01 04:19:29;;;;;;;6.47;5.97;;;2.60;99.90;;;;;;6265128;28;20267;-53
2022/04/01 04:22:40;;;;;;;7.50;6.70;;;2.30;99.90;;;;;;6259110;28;20561;-53
2022/04/01 04:25:59;;;;;;;7.07;6.53;;;2.50;99.90;;;;;;6281915;28;20855;-52
2022/04/01 04:29:10;;;;;;;8.17;6.17;;;2.30;99.90;;;;;;6271634;28;20240;-54
2022/04/01 04:32:24;;;;;;;6.43;6.03;;;2.40;99.90;;;;;;6277381;28;20231;-53
2022/04/01 04:35:28;;;;;;;6.67;6.10;;;2.50;99.90;;;;;;6280472;28;20299;-53
2022/04/01 04:38:37;;;;;;;7.30;6.73;;;2.50;99.90;;;;;;6259148;28;20338;-54
2022/04/01 04:41:41;;;;;;;6.63;6.13;;;2.50;99.90;;;;;;6259775;28;20304;-53
2022/04/01 04:44:46;;;;;;;7.20;5.73;;;2.40;99.90;;;;;;6248036;28;20712;-54
2022/04/01 04:47:50;;;;;;;6.50;6.00;;;2.50;99.90;;;;;;6231193;28;20495;-54
2022/04/01 04:50:53;;;;;;;6.30;5.90;;;2.30;99.90;;;;;;6243961;28;20233;-55
2022/04/01 04:53:59;;;;;;;6.47;6.00;;;2.30;99.90;;;;;;6237999;28;20231;-53
2022/04/01 04:57:04;;;;;;;7.47;5.93;;;2.40;99.90;;;;;;6258961;28;20238;-53
2022/04/01 05:00:10;;;;;;;7.87;5.60;;;2.40;99.90;;;;;;6255653;28;20742;-55
2022/04/01 05:03:45;;;;;;;6.30;5.80;;;2.40;99.90;;;;;;6262094;28;20837;-54
2022/04/01 05:06:52;;;;;;;8.27;5.90;;;2.60;99.90;;;;;;6246652;28;20249;-54
2022/04/01 05:10:02;;;;;;;5.67;5.30;;;2.30;99.90;;;;;;6257508;28;20281;-52
2022/04/01 05:13:10;;;;;;;6.50;5.93;;;2.50;99.90;;;;;;6258800;28;20583;-54
2022/04/01 05:16:24;;;;;;;8.33;5.70;;;2.50;99.90;;;;;;6243714;28;20238;-53
2022/04/01 05:19:29;;;;;;;7.10;5.67;;;2.70;99.90;;;;;;6264742;28;20245;-53
2022/04/01 05:22:40;;;;;;;6.40;5.90;;;2.20;99.90;;;;;;6263143;28;20232;-54
2022/04/01 05:25:46;;;;;;;6.23;5.83;;;2.20;99.90;;;;;;6269670;28;20397;-53
2022/04/01 05:28:53;;;;;;;6.40;5.83;;;2.30;99.90;;;;;;6262181;28;20253;-53
2022/04/01 05:32:02;;;;;;;6.17;5.53;;;2.40;1.00;;;;;;6261348;28;20322;-54
2022/04/01 05:35:06;;;;;;;6.40;5.80;;;2.40;99.90;;;;;;6258761;28;20238;-54
2022/04/01 05:38:09;;;;;;;7.57;5.40;;;2.40;1.00;;;;;;6259399;28;20313;-59
2022/04/01 05:41:13;;;;;;;6.23;5.80;;;2.30;1.00;;;;;;6261187;28;20230;-53
2022/04/01 05:44:17;;;;;;;6.20;5.80;;;2.30;1.00;;;;;;6259190;28;20760;-54
2022/04/01 05:47:24;;;;;;;6.07;5.67;;;2.30;1.00;;;;;;6253988;28;20232;-53
2022/04/01 05:50:28;;;;;;;6.20;5.60;;;2.40;1.00;;;;;;6265846;28;20526;-53
2022/04/01 05:53:33;;;;;;;5.50;5.00;;;2.60;1.00;;;;;;6264702;28;20237;-53
2022/04/01 05:56:39;;;;;;;5.67;5.37;;;2.70;1.00;;;;;;6256635;28;20605;-53
2022/04/01 05:59:42;;;;;;;5.93;5.50;;;2.50;1.00;;;;;;6259711;28;20317;-54
2022/04/01 06:03:31;;;;;;;6.23;5.83;;;2.40;1.00;;;;;;6258584;28;20237;-54
2022/04/01 06:06:40;;;;;;;5.33;4.90;;;2.70;1.00;;;;;;6251194;28;20246;-54
2022/04/01 06:09:53;;;;;;;6.00;4.97;;;2.80;1.00;;;;;;6278253;28;20447;-53
2022/04/01 06:13:14;;;;;;;6.83;5.77;;;2.80;1.00;;;;;;6260988;28;20651;-53
2022/04/01 06:16:23;;;;;;;5.80;5.23;;;2.50;1.00;;;;;;6263095;28;20248;-53
2022/04/01 06:19:32;;;;;;;5.47;5.17;;;2.70;1.00;;;;;;6254917;28;20389;-53
2022/04/01 06:22:40;;;;;;;5.13;4.73;;;2.60;1.00;;;;;;6257429;28;20238;-55
2022/04/01 06:25:51;;;;;;;9.40;5.73;;;2.70;1.00;;;;;;6260214;28;20384;-53
2022/04/01 06:29:01;;;;;;;5.63;5.23;;;2.30;1.00;;;;;;6273005;28;20305;-53
2022/04/01 06:32:07;;;;;;;7.13;5.23;;;2.80;1.00;;;;;;6288562;28;20241;-53
2022/04/01 06:35:19;;;;;;;5.53;5.07;;;3.00;1.00;;;;;;6286349;28;20773;-54
2022/04/01 06:38:31;;;;;;;7.77;5.10;;;3.00;1.00;;;;;;6256594;28;20325;-53
2022/04/01 06:41:42;;;;;;;6.70;5.53;;;3.20;1.00;;;;;;6271910;28;20234;-52
2022/04/01 06:44:45;;;;;;;5.80;5.30;;;3.20;1.00;;;;;;6268414;28;20363;-53
2022/04/01 06:47:48;;;;;;;5.93;5.40;;;3.20;1.00;;;;;;6271944;28;20680;-53
2022/04/01 06:50:54;;;;;;;5.67;5.00;;;3.30;1.00;;;;;;6271113;28;20244;-59
2022/04/01 06:53:57;;;;;;;8.37;5.50;;;3.10;1.00;;;;;;6276370;28;20250;-56
2022/04/01 06:57:00;;;;;;;5.67;5.13;;;3.50;1.00;;;;;;6255877;28;20706;-53
2022/04/01 07:00:05;;;;;;;5.43;5.03;;;3.50;99.90;;;;;;6260257;28;20379;-54
2022/04/01 07:03:08;;;;;;;5.13;4.80;;;3.60;99.90;;;;;;6262053;28;20748;-55
2022/04/01 07:06:13;;;;;;;5.17;4.67;;;3.70;99.90;;;;;;6254235;28;20245;-54
2022/04/01 07:09:20;;;;;;;5.40;4.90;;;3.80;99.90;;;;;;6255158;28;20238;-51
2022/04/01 07:12:24;;;;;;;4.67;4.40;;;3.60;99.90;;;;;;6268401;28;20262;-53
2022/04/01 07:15:27;;;;;;;7.07;5.07;;;3.90;99.90;;;;;;6261743;28;20248;-53
2022/04/01 07:18:30;;;;;;;5.03;4.83;;;3.80;99.90;;;;;;6267030;28;20248;-53
2022/04/01 07:21:34;;;;;;;5.13;4.80;;;3.90;99.90;;;;;;6261571;28;20241;-53
2022/04/01 07:24:37;;;;;;;5.30;4.80;;;4.00;99.90;;;;;;6268952;28;20450;-53
2022/04/01 07:27:40;;;;;;;6.80;5.17;;;4.00;99.90;;;;;;6265576;28;20263;-54
2022/04/01 07:30:43;;;;;;;5.30;5.00;;;4.10;99.90;;;;;;6265230;28;20616;-53
2022/04/01 07:33:45;;;;;;;5.10;4.90;;;4.00;99.90;;;;;;6264052;28;20284;-54
2022/04/01 07:36:50;;;;;;;5.23;4.90;;;4.10;99.90;;;;;;6261338;28;20284;-53
2022/04/01 07:39:56;;;;;;;5.20;4.90;;;4.40;99.90;;;;;;6263812;28;20974;-54
2022/04/01 07:42:59;;;;;;;8.23;4.83;;;4.50;99.90;;;;;;6261323;28;20226;-53
2022/04/01 07:46:02;;;;;;;8.17;4.87;;;4.40;99.90;;;;;;6263489;28;20256;-54
2022/04/01 07:49:05;;;;;;;4.63;4.33;;;4.60;99.90;;;;;;6260031;28;20244;-53
2022/04/01 07:52:10;;;;;;;4.80;4.50;;;4.90;99.90;;;;;;6260667;28;20293;-54
2022/04/01 07:55:22;;;;;;;5.87;4.67;;;4.90;99.90;;;;;;6276906;28;20288;-53
2022/04/01 07:58:24;;;;;;;5.77;4.60;;;5.00;99.90;;;;;;6284337;28;20264;-52
2022/04/01 08:01:28;;;;;;;5.27;4.87;;;5.40;99.90;;;;;;6283689;28;20256;-54
2022/04/01 08:04:31;;;;;;;5.07;4.77;;;5.30;99.90;;;;;;6257308;28;20246;-52
2022/04/01 08:07:41;;;;;;;6.10;5.03;;;5.40;99.90;;;;;;6264974;28;20322;-53
2022/04/01 08:10:44;;;;;;;5.37;4.67;;;5.60;99.90;;;;;;6274374;28;20229;-54
2022/04/01 08:13:47;;;;;;;5.77;5.17;;;5.50;99.90;;;;;;6277884;28;20239;-56
2022/04/01 08:16:49;;;;;;;4.73;4.30;;;5.60;99.90;;;;;;6265775;28;20313;-53
2022/04/01 08:19:52;;;;;;;5.10;4.73;;;5.70;99.90;;;;;;6257671;28;20250;-53
2022/04/01 08:22:56;;;;;;;4.63;4.23;;;5.90;99.90;;;;;;6255899;28;20744;-53
2022/04/01 08:25:59;;;;;;;4.90;4.60;;;5.80;99.90;;;;;;6260562;28;20241;-53
2022/04/01 08:29:02;;;;;;;4.67;4.40;;;5.60;99.90;;;;;;6259214;28;21763;-53
2022/04/01 08:32:07;;;;;;;5.13;4.63;;;5.90;99.90;;;;;;6264649;28;20751;-54
2022/04/01 08:35:10;;;;;;;5.53;4.47;;;5.90;99.90;;;;;;6270772;28;20303;-54
2022/04/01 08:38:15;;;;;;;4.63;4.30;;;6.40;99.90;;;;;;6259294;28;20619;-54
2022/04/01 08:41:20;;;;;;;5.40;4.20;;;6.10;99.90;;;;;;6259758;28;20238;-54
2022/04/01 08:44:23;;;;;;;7.77;4.57;;;6.30;99.90;;;;;;6255949;28;20300;-53
2022/04/01 08:47:25;;;;;;;4.73;4.20;;;6.30;99.90;;;;;;6256628;28;20710;-54
2022/04/01 08:50:28;;;;;;;7.87;4.30;;;6.60;99.90;;;;;;6259205;28;20317;-52
2022/04/01 08:53:37;;;;;;;4.30;4.00;;;6.50;99.90;;;;;;6266927;28;20316;-53
2022/04/01 08:56:40;;;;;;;5.43;4.47;;;6.50;99.90;;;;;;6254707;28;20326;-54
2022/04/01 08:59:43;;;;;;;9.13;4.70;;;6.50;99.90;;;;;;6258679;28;20706;-55
2022/04/01 09:02:58;;;;;;;4.53;4.33;;;6.50;99.90;;;;;;6267133;28;20746;-53
2022/04/01 09:06:03;;;;;;;6.10;4.23;;;6.80;99.90;;;;;;6258914;28;20242;-54
2022/04/01 09:09:21;;;;;;;6.80;4.33;;;6.90;99.90;;;;;;6258678;28;20364;-52
2022/04/01 09:12:24;;;;;;;10.37;4.10;;;7.00;99.90;;;;;;6255055;28;20289;-55
2022/04/01 09:15:41;;;;;;;4.27;3.97;;;6.90;99.90;;;;;;6258171;28;20905;-54
2022/04/01 09:18:46;;;;;;;7.73;4.00;;;6.90;99.90;;;;;;6257547;28;20283;-55
2022/04/01 09:21:49;;;;;;;6.37;4.23;;;7.20;99.90;;;;;;6252952;28;20226;-52
2022/04/01 09:24:59;;;;;;;6.27;3.90;;;7.00;99.90;;;;;;6256384;28;20242;-52
2022/04/01 09:28:01;;;;;;;5.00;4.60;;;7.10;99.90;;;;;;6260995;28;20264;-53
2022/04/01 09:31:07;;;;;;;4.57;4.27;;;7.20;99.90;;;;;;6259781;28;20254;-53
2022/04/01 09:34:30;;;;;;;5.77;4.70;;;7.10;99.90;;;;;;6253375;28;20402;-52
2022/04/01 09:37:41;;;;;;;5.53;4.50;;;7.20;99.90;;;;;;6263105;28;20242;-55
2022/04/01 09:40:51;;;;;;;14.87;5.03;;;7.20;99.90;;;;;;6264481;28;20230;-54
2022/04/01 09:44:03;;;;;;;24.87;6.10;;;7.20;99.90;;;;;;6262882;28;20230;-54
2022/04/01 09:47:07;;;;;;;13.43;4.57;;;7.50;99.90;;;;;;6285043;28;21033;-53
2022/04/01 09:50:13;;;;;;;6.10;4.33;;;7.30;99.90;;;;;;6289505;28;20251;-51
2022/04/01 09:53:19;;;;;;;4.60;4.13;;;7.40;99.90;;;;;;6281590;28;20320;-52
2022/04/01 09:56:36;;;;;;;4.67;4.40;;;7.60;99.90;;;;;;6275340;28;20332;-55
2022/04/01 09:59:38;;;;;;;11.00;4.37;;;7.70;99.90;;;;;;6281172;28;20269;-54
2022/04/01 10:02:41;;;;;;;4.80;4.40;;;7.80;99.90;;;;;;6295556;28;20323;-53
2022/04/01 10:05:45;;;;;;;8.07;4.87;;;7.90;99.90;;;;;;6287001;28;20248;-54
2022/04/01 10:08:48;;;;;;;5.80;4.63;;;7.90;99.90;;;;;;6289091;28;20323;-53
2022/04/01 10:12:01;;;;;;;4.83;4.40;;;7.90;99.90;;;;;;6286509;28;20353;-54
2022/04/01 10:15:07;;;;;;;5.20;4.70;;;8.00;99.90;;;;;;6289288;28;20324;-53
2022/04/01 10:18:30;;;;;;;9.30;4.57;;;8.10;99.90;;;;;;6278220;28;20309;-52
2022/04/01 10:21:34;;;;;;;6.20;4.63;;;8.20;99.90;;;;;;6289640;28;20249;-51
2022/04/01 10:24:42;;;;;;;5.13;4.50;;;8.30;99.90;;;;;;6292608;28;20237;-54
2022/04/01 10:27:50;;;;;;;4.17;3.97;;;8.30;99.90;;;;;;6281852;28;20225;-53
2022/04/01 10:30:56;;;;;;;4.70;4.30;;;8.30;99.90;;;;;;6298685;28;20303;-53
2022/04/01 10:34:19;;;;;;;4.80;4.40;;;8.40;99.90;;;;;;6295038;28;21441;-56
2022/04/01 10:37:25;;;;;;;5.20;4.63;;;8.60;99.90;;;;;;6289713;28;20713;-54
2022/04/01 10:40:32;;;;;;;10.33;4.50;;;8.70;99.90;;;;;;6292448;28;20395;-53
2022/04/01 10:43:41;;;;;;;9.00;4.60;;;8.70;99.90;;;;;;6290617;28;20252;-53
2022/04/01 10:46:58;;;;;;;4.43;4.23;;;8.70;99.90;;;;;;6288746;28;20411;-54
2022/04/01 10:53:45;;;;;;;4.23;3.93;;;8.90;99.90;;;;;;6279510;28;20230;-52
2022/04/01 10:56:56;;;;;;;6.70;4.20;;;8.90;99.90;;;;;;6296914;28;20244;-55
2022/04/01 11:00:02;;;;;;;9.20;4.10;;;8.90;99.90;;;;;;6289588;28;20735;-53
2022/04/01 11:03:23;;;;;;;4.27;3.97;;;8.90;99.90;;;;;;6281210;28;20240;-53
2022/04/01 11:06:27;;;;;;;4.10;3.90;;;9.00;99.90;;;;;;6287303;28;20237;-54
2022/04/01 11:09:42;;;;;;;5.07;4.27;;;9.00;99.90;;;;;;6280273;28;20229;-54
2022/04/01 11:12:51;;;;;;;5.20;4.23;;;9.10;99.90;;;;;;6288844;28;20316;-54
2022/04/01 11:16:12;;;;;;;6.93;4.17;;;9.20;99.90;;;;;;6289161;28;20741;-54
2022/04/01 11:19:17;;;;;;;4.30;4.00;;;9.20;99.90;;;;;;6291063;28;20279;-54
2022/04/01 11:22:35;;;;;;;4.07;3.93;;;9.20;99.90;;;;;;6288489;28;20701;-54
2022/04/01 11:25:55;;;;;;;4.67;4.27;;;9.30;99.90;;;;;;6284188;28;20237;-54
2022/04/01 11:29:01;;;;;;;5.13;4.73;;;9.30;99.90;;;;;;6282594;28;20233;-54
2022/04/01 11:32:08;;;;;;;7.50;4.57;;;9.30;99.90;;;;;;6289241;28;20898;-54
2022/04/01 11:35:12;;;;;;;13.33;4.60;;;9.50;99.90;;;;;;6287214;28;20245;-53
2022/04/01 11:38:18;;;;;;;9.43;4.40;;;9.50;99.90;;;;;;6292720;28;20241;-54
2022/04/01 11:41:21;;;;;;;4.83;3.90;;;9.50;99.90;;;;;;6283959;28;20390;-53
2022/04/01 11:44:25;;;;;;;6.20;4.20;;;9.60;99.90;;;;;;6284966;28;20289;-53
2022/04/01 11:47:34;;;;;;;4.93;3.87;;;9.50;99.90;;;;;;6292427;28;20299;-54
2022/04/01 11:50:36;;;;;;;4.43;4.00;;;9.50;99.90;;;;;;6288624;28;20799;-54
2022/04/01 11:53:43;;;;;;;5.03;4.10;;;9.60;99.90;;;;;;6281459;28;20263;-52
2022/04/01 11:56:46;;;;;;;4.77;4.37;;;9.50;99.90;;;;;;6286012;28;20609;-53
2022/04/01 11:59:48;;;;;;;4.80;4.20;;;9.50;99.90;;;;;;6282240;28;20251;-53
2022/04/01 12:02:53;;;;;;;4.03;3.77;;;9.50;99.90;;;;;;6291370;28;20268;-53
2022/04/01 12:08:41;;;;;;;7.80;3.77;;;9.60;99.90;;;;;;6284908;28;20471;-54
2022/04/01 12:09:18;;;;;;;10.17;4.80;;;9.50;99.90;;;;;;6281611;28;20800;-52
2022/04/01 12:12:31;;;;;;;5.40;3.80;;;9.50;99.90;;;;;;6296533;28;20665;-54
2022/04/01 12:15:35;;;;;;;4.10;3.80;;;9.60;99.90;;;;;;6284699;28;20530;-53
2022/04/01 12:18:40;;;;;;;7.17;4.20;;;9.70;99.90;;;;;;6280449;28;20248;-54
2022/04/01 12:21:43;;;;;;;4.83;4.50;;;9.80;99.90;;;;;;6279318;28;20289;-53
2022/04/01 12:24:51;;;;;;;6.30;4.23;;;9.80;99.90;;;;;;6290674;28;20255;-53
2022/04/01 12:27:54;;;;;;;4.53;4.17;;;9.90;99.90;;;;;;6287757;28;20286;-53
2022/04/01 12:30:57;;;;;;;3.70;3.50;;;9.90;99.90;;;;;;6281415;28;20253;-53
2022/04/01 12:34:01;;;;;;;4.63;4.33;;;10.00;99.90;;;;;;6290365;28;20245;-53
2022/04/01 12:37:06;;;;;;;8.13;4.20;;;10.00;99.90;;;;;;6290991;28;20565;-53
2022/04/01 12:40:10;;;;;;;5.93;4.13;;;10.10;99.90;;;;;;6287153;28;20240;-55
2022/04/01 12:43:37;;;;;;;5.23;3.73;;;10.20;99.90;;;;;;6292033;28;20335;-53
2022/04/01 12:46:40;;;;;;;9.67;3.70;;;10.10;99.90;;;;;;6269621;28;20330;-51
2022/04/01 12:49:44;;;;;;;10.73;3.90;;;10.00;99.90;;;;;;6289736;28;20324;-52
2022/04/01 12:52:49;;;;;;;4.53;4.20;;;10.00;99.90;;;;;;6294806;28;20244;-52
2022/04/01 12:55:52;;;;;;;4.03;3.83;;;9.90;99.90;;;;;;6283850;28;20387;-52
2022/04/01 12:58:56;;;;;;;3.90;3.73;;;10.00;99.90;;;;;;6285150;28;20233;-54
2022/04/01 13:02:02;;;;;;;3.97;3.80;;;10.10;99.90;;;;;;6283853;28;20316;-52
2022/04/01 13:05:13;;;;;;;6.73;3.93;;;10.10;99.90;;;;;;6287056;28;20232;-54
2022/04/01 13:08:31;;;;;;;9.33;3.87;;;10.20;99.90;;;;;;6284669;28;20237;-54
2022/04/01 13:11:39;;;;;;;3.97;3.63;;;10.20;99.90;;;;;;6282373;28;20840;-54
2022/04/01 13:14:42;;;;;;;6.17;4.27;;;10.30;99.90;;;;;;6283369;28;20402;-52
2022/04/01 13:17:49;;;;;;;5.47;4.03;;;10.20;99.90;;;;;;6293349;28;20235;-52
2022/04/01 13:20:53;;;;;;;4.37;3.97;;;10.20;99.90;;;;;;6284133;28;20731;-54
2022/04/01 13:23:56;;;;;;;4.40;3.90;;;10.20;99.90;;;;;;6289444;28;20245;-53
2022/04/01 13:26:59;;;;;;;4.93;3.83;;;10.20;99.90;;;;;;6282904;28;20305;-53
2022/04/01 13:30:02;;;;;;;5.87;3.60;;;10.10;99.90;;;;;;6282978;28;20297;-52
2022/04/01 13:33:05;;;;;;;4.17;3.90;;;10.20;99.90;;;;;;6281141;28;20608;-54
2022/04/01 13:36:09;;;;;;;6.57;4.17;;;10.10;99.90;;;;;;6296268;28;20792;-53
2022/04/01 13:39:12;;;;;;;4.53;4.23;;;10.20;99.90;;;;;;6291945;28;20467;-54
2022/04/01 13:42:16;;;;;;;7.03;3.70;;;10.10;99.90;;;;;;6291465;28;20729;-53
2022/04/01 13:45:19;;;;;;;5.80;3.87;;;10.20;99.90;;;;;;6292103;28;20298;-53
2022/04/01 13:48:24;;;;;;;4.40;4.03;;;10.20;99.90;;;;;;6289016;28;20277;-53
2022/04/01 13:51:29;;;;;;;6.63;3.97;;;10.30;99.90;;;;;;6299041;28;20274;-52
2022/04/01 13:54:33;;;;;;;4.03;3.70;;;10.30;99.90;;;;;;6290518;28;20240;-54
2022/04/01 13:57:35;;;;;;;4.40;4.00;;;10.30;99.90;;;;;;6287573;28;20294;-52
2022/04/01 14:00:39;;;;;;;3.60;3.50;;;10.20;99.90;;;;;;6286105;28;20261;-52
2022/04/01 14:03:42;;;;;;;4.13;3.87;;;10.20;99.90;;;;;;6289444;28;20325;-54
2022/04/01 14:06:49;;;;;;;5.73;4.50;;;10.20;99.90;;;;;;6286643;28;20392;-54
2022/04/01 14:09:52;;;;;;;9.13;4.43;;;10.10;99.90;;;;;;6291094;28;20314;-53
2022/04/01 14:13:03;;;;;;;4.53;4.23;;;10.20;99.90;;;;;;6287195;28;20232;-54
2022/04/01 14:16:13;;;;;;;6.23;3.97;;;10.20;99.90;;;;;;6276778;28;20238;-53
2022/04/01 14:19:16;;;;;;;4.20;4.00;;;10.20;99.90;;;;;;6287550;28;20232;-53
2022/04/01 14:22:20;;;;;;;5.10;4.57;;;10.20;99.90;;;;;;6290061;28;20311;-52
2022/04/01 14:25:23;;;;;;;4.47;4.07;;;10.00;99.90;;;;;;6288838;28;20740;-51
2022/04/01 14:28:26;;;;;;;4.70;4.10;;;9.80;99.90;;;;;;6287137;28;20873;-54
2022/04/01 14:31:29;;;;;;;6.73;4.20;;;9.70;99.90;;;;;;6293923;28;20751;-54
2022/04/01 14:34:36;;;;;;;4.47;4.17;;;9.70;99.90;;;;;;6285957;28;20431;-54
2022/04/01 14:37:41;;;;;;;6.50;4.33;;;9.70;99.90;;;;;;6288648;28;20272;-53
2022/04/01 14:40:43;;;;;;;6.03;5.00;;;9.60;99.90;;;;;;6287921;28;20740;-55
2022/04/01 14:43:46;;;;;;;5.10;4.43;;;9.70;99.90;;;;;;6290049;28;20274;-54
2022/04/01 14:46:50;;;;;;;4.67;4.20;;;9.60;99.90;;;;;;6292076;28;20256;-53
2022/04/01 14:49:52;;;;;;;4.53;4.23;;;9.60;99.90;;;;;;6283052;28;20312;-53
2022/04/01 14:52:56;;;;;;;5.57;4.40;;;9.70;99.90;;;;;;6291954;28;20237;-53
2022/04/01 14:55:59;;;;;;;4.83;4.23;;;9.80;99.90;;;;;;6289373;28;20261;-53
2022/04/01 14:59:02;;;;;;;5.70;4.57;;;9.80;99.90;;;;;;6289162;28;20487;-55
2022/04/01 15:02:05;;;;;;;10.03;4.40;;;9.80;99.90;;;;;;6299395;28;20271;-53
2022/04/01 15:05:13;;;;;;;12.60;5.00;;;9.90;99.90;;;;;;6285789;28;20236;-54
2022/04/01 15:08:18;;;;;;;4.90;4.50;;;9.80;99.90;;;;;;6295670;28;20229;-53
2022/04/01 15:11:20;;;;;;;4.63;4.33;;;9.80;99.90;;;;;;6294771;28;20225;-51
2022/04/01 15:14:24;;;;;;;4.57;4.13;;;9.70;99.90;;;;;;6287336;28;20247;-54
2022/04/01 15:17:31;;;;;;;4.63;4.43;;;9.80;99.90;;;;;;6288127;28;20608;-56
2022/04/01 15:20:34;;;;;;;4.80;4.40;;;9.60;99.90;;;;;;6287005;28;20546;-55
2022/04/01 15:23:40;;;;;;;4.70;4.00;;;9.60;99.90;;;;;;6288121;28;20626;-55
2022/04/01 15:26:44;;;;;;;4.53;4.03;;;9.50;99.90;;;;;;6292833;28;20237;-55
2022/04/01 15:29:47;;;;;;;8.47;4.10;;;9.30;99.90;;;;;;6291720;28;20244;-54
2022/04/01 15:32:50;;;;;;;4.43;4.03;;;9.20;99.90;;;;;;6284693;28;20236;-53
2022/04/01 15:35:54;;;;;;;5.00;4.60;;;9.30;99.90;;;;;;6283400;28;20742;-54
2022/04/01 15:39:00;;;;;;;7.33;4.30;;;9.20;99.90;;;;;;6286330;28;20579;-53
2022/04/01 15:42:07;;;;;;;5.83;4.83;;;9.20;99.90;;;;;;6287680;28;20320;-53
2022/04/01 15:45:11;;;;;;;9.43;4.63;;;9.10;99.90;;;;;;6286614;28;20514;-54
2022/04/01 15:48:14;;;;;;;7.97;4.67;;;9.00;99.90;;;;;;6290288;28;20268;-53
2022/04/01 15:51:18;;;;;;;8.47;4.53;;;8.90;99.90;;;;;;6292591;28;20312;-54
2022/04/01 15:54:24;;;;;;;4.77;4.40;;;8.90;99.90;;;;;;6285380;28;20320;-51
2022/04/01 15:57:27;;;;;;;6.93;4.60;;;8.90;99.90;;;;;;6287244;28;20241;-54
2022/04/01 16:00:31;;;;;;;4.60;4.30;;;8.90;99.90;;;;;;6285613;28;20336;-54
2022/04/01 16:03:38;;;;;;;4.43;4.17;;;8.80;99.90;;;;;;6293245;28;20243;-54
2022/04/01 16:06:41;;;;;;;4.73;4.33;;;8.90;99.90;;;;;;6285980;28;20255;-54
2022/04/01 16:09:46;;;;;;;4.87;4.57;;;8.90;99.90;;;;;;6282751;28;20328;-53
2022/04/01 16:12:50;;;;;;;4.40;4.20;;;8.70;99.90;;;;;;6293309;28;20320;-54
2022/04/01 16:15:53;;;;;;;4.80;4.57;;;8.70;99.90;;;;;;6290242;28;20325;-56
2022/04/01 16:19:00;;;;;;;6.33;4.47;;;8.60;99.90;;;;;;6290057;28;20869;-53
2022/04/01 16:22:07;;;;;;;4.50;3.83;;;8.50;99.90;;;;;;6293549;28;20324;-54
2022/04/01 16:25:17;;;;;;;4.30;4.10;;;8.50;99.90;;;;;;6285899;28;20240;-54